Anderson Springs, California
Current Conditions -  °F | °C
As of 10:53 PM on Saturday 20 Dec 2014 (Local Time) from KSTS Reporting Station
Haze Haze  
Wind Chill: 55°   Ceiling: 300
Heat Index: 55°   Visibility: 5mi
Dew Point: 54°   Wind: 3mph
Humidity: 96%   Direction: 330°NNW
Pressure: 30.22"   Gusts: NA
Location:  38.7763°N, 122.598°W
Report Text: KSTS 210653Z AUTO 33003KT 5SM BR OVC003 13/12 A3022 RMK AO2 SLP229 T01280122
Loading
Personal Weather Stations






























Interactive Weather Map New forecast layout! Learn more

10-Day Weather Forecast

Advertisements
Track Severe Weather on mobile